createdAt,value
2017-12-30T00:00:50.559Z,8.00
2017-12-30T00:01:50.557Z,8.00
2017-12-30T00:02:50.560Z,8.00
2017-12-30T00:03:50.843Z,8.00
2017-12-30T00:04:50.632Z,8.00
2017-12-30T00:05:50.559Z,8.00
2017-12-30T00:06:50.799Z,8.00
2017-12-30T00:07:50.595Z,8.00
2017-12-30T00:08:50.592Z,8.00
2017-12-30T00:09:50.566Z,8.00
2017-12-30T00:10:50.587Z,8.00
2017-12-30T00:11:50.783Z,8.00
2017-12-30T00:12:50.570Z,8.00
2017-12-30T00:13:50.574Z,8.00
2017-12-30T00:14:50.571Z,8.00
2017-12-30T00:15:50.567Z,8.00
2017-12-30T00:16:50.770Z,8.00
2017-12-30T00:17:50.778Z,8.00
2017-12-30T00:18:50.625Z,8.00
2017-12-30T00:19:50.782Z,8.00
2017-12-30T00:20:50.596Z,8.00
2017-12-30T00:21:50.578Z,8.00
2017-12-30T00:22:50.775Z,8.00
2017-12-30T00:23:50.578Z,8.00
2017-12-30T00:24:50.779Z,8.00
2017-12-30T00:25:50.584Z,8.00
2017-12-30T00:26:50.580Z,8.00
2017-12-30T00:27:50.580Z,8.00
2017-12-30T00:28:50.580Z,8.00
2017-12-30T00:29:50.586Z,8.00
2017-12-30T00:30:50.788Z,8.00
2017-12-30T00:31:50.791Z,8.00
2017-12-30T00:32:50.792Z,8.00
2017-12-30T00:33:50.787Z,8.00
2017-12-30T00:34:50.594Z,4.00
2017-12-30T00:35:50.792Z,4.00
2017-12-30T00:36:50.589Z,0.00
2017-12-30T00:37:50.793Z,0.00
2017-12-30T00:38:50.797Z,0.00
2017-12-30T00:39:50.600Z,0.00
2017-12-30T00:40:50.791Z,0.00
2017-12-30T00:41:50.599Z,0.00
2017-12-30T00:42:50.806Z,0.00
2017-12-30T00:43:50.607Z,0.00
2017-12-30T00:44:50.606Z,0.00
2017-12-30T00:45:50.801Z,0.00
2017-12-30T00:46:50.598Z,0.00
2017-12-30T00:47:50.606Z,0.00
2017-12-30T00:48:50.608Z,0.00
2017-12-30T00:49:50.807Z,0.00
2017-12-30T00:50:50.801Z,0.00
2017-12-30T00:51:50.608Z,0.00
2017-12-30T00:52:50.814Z,0.00
2017-12-30T00:53:50.809Z,0.00
2017-12-30T00:54:50.819Z,0.00
2017-12-30T00:55:50.810Z,0.00
2017-12-30T00:56:50.812Z,0.00
2017-12-30T00:57:50.818Z,0.00
2017-12-30T00:58:50.614Z,0.00
2017-12-30T00:59:50.813Z,0.00
2017-12-30T01:00:50.615Z,0.00
2017-12-30T01:01:50.619Z,0.00
2017-12-30T01:02:50.825Z,0.00
2017-12-30T01:03:50.866Z,0.00
2017-12-30T01:04:50.618Z,0.00
2017-12-30T01:05:50.830Z,0.00
2017-12-30T01:06:50.624Z,0.00
2017-12-30T01:07:50.632Z,0.00
2017-12-30T01:08:50.824Z,0.00
2017-12-30T01:09:50.822Z,0.00
2017-12-30T01:10:50.627Z,0.00
2017-12-30T01:11:50.828Z,0.00
2017-12-30T01:12:50.633Z,0.00
2017-12-30T01:13:50.837Z,0.00
2017-12-30T01:14:50.837Z,0.00
2017-12-30T01:15:50.631Z,0.00
2017-12-30T01:16:50.630Z,0.00
2017-12-30T01:17:50.836Z,0.00
2017-12-30T01:18:50.840Z,0.00
2017-12-30T01:19:50.845Z,0.00
2017-12-30T01:20:50.834Z,0.00
2017-12-30T01:21:50.644Z,0.00
2017-12-30T01:22:50.846Z,0.00
2017-12-30T01:23:50.846Z,0.00
2017-12-30T01:24:50.843Z,0.00
2017-12-30T01:25:50.842Z,0.00
2017-12-30T01:26:50.852Z,0.00
2017-12-30T01:27:50.850Z,0.00
2017-12-30T01:28:50.853Z,0.00
2017-12-30T01:29:50.850Z,0.00
2017-12-30T01:30:50.850Z,0.00
2017-12-30T01:31:50.852Z,0.00
2017-12-30T01:32:50.857Z,0.00
2017-12-30T01:33:50.657Z,0.00
2017-12-30T01:34:50.660Z,0.00
2017-12-30T01:35:50.860Z,0.00
2017-12-30T01:36:50.659Z,0.00
2017-12-30T01:37:50.661Z,0.00
2017-12-30T01:38:50.855Z,0.00
2017-12-30T01:39:50.856Z,0.00
2017-12-30T01:40:50.665Z,0.00
2017-12-30T01:41:50.860Z,0.00
2017-12-30T01:42:50.867Z,0.00
2017-12-30T01:43:50.867Z,0.00
2017-12-30T01:44:50.672Z,0.00
2017-12-30T01:45:50.665Z,0.00
2017-12-30T01:46:50.867Z,0.00
2017-12-30T01:47:50.868Z,0.00
2017-12-30T01:48:50.868Z,0.00
2017-12-30T01:49:50.678Z,0.00
2017-12-30T01:50:50.676Z,0.00
2017-12-30T01:51:50.881Z,0.00
2017-12-30T01:52:50.879Z,0.00
2017-12-30T01:53:50.680Z,0.00
2017-12-30T01:54:50.680Z,0.00
2017-12-30T01:55:50.684Z,0.00
2017-12-30T01:56:50.885Z,0.00
2017-12-30T01:57:50.875Z,0.00
2017-12-30T01:58:50.881Z,0.00
2017-12-30T01:59:50.688Z,0.00
2017-12-30T02:00:50.893Z,0.00
2017-12-30T02:01:50.883Z,0.00
2017-12-30T02:02:50.681Z,0.00
2017-12-30T02:03:50.686Z,0.00
2017-12-30T02:04:50.883Z,0.00
2017-12-30T02:05:50.692Z,0.00
2017-12-30T02:06:50.696Z,0.00
2017-12-30T02:07:50.896Z,0.00
2017-12-30T02:08:50.890Z,0.00
2017-12-30T02:09:50.694Z,0.00
2017-12-30T02:10:50.894Z,0.00
2017-12-30T02:11:50.902Z,0.00
2017-12-30T02:12:50.902Z,0.00
2017-12-30T02:13:50.697Z,0.00
2017-12-30T02:14:50.705Z,0.00
2017-12-30T02:15:50.706Z,0.00
2017-12-30T02:16:50.912Z,0.00
2017-12-30T02:17:50.905Z,0.00
2017-12-30T02:18:50.702Z,0.00
2017-12-30T02:19:50.905Z,0.00
2017-12-30T02:20:50.907Z,0.00
2017-12-30T02:21:50.912Z,0.00
2017-12-30T02:22:50.711Z,0.00
2017-12-30T02:23:50.914Z,0.00
2017-12-30T02:24:50.910Z,0.00
2017-12-30T02:25:50.910Z,0.00
2017-12-30T02:26:50.916Z,0.00
2017-12-30T02:27:50.911Z,0.00
2017-12-30T02:28:50.910Z,0.00
2017-12-30T02:29:50.917Z,0.00
2017-12-30T02:30:50.911Z,0.00
2017-12-30T02:31:50.717Z,0.00
2017-12-30T02:32:50.913Z,0.00
2017-12-30T02:33:50.917Z,0.00
2017-12-30T02:34:50.923Z,0.00
2017-12-30T02:35:50.922Z,0.00
2017-12-30T02:36:50.931Z,0.00
2017-12-30T02:37:50.730Z,0.00
2017-12-30T02:38:50.923Z,0.00
2017-12-30T02:39:50.928Z,0.00
2017-12-30T02:40:50.731Z,0.00
2017-12-30T02:41:50.925Z,0.00
2017-12-30T02:42:50.930Z,0.00
2017-12-30T02:43:50.930Z,0.00
2017-12-30T02:44:50.932Z,0.00
2017-12-30T02:45:50.930Z,0.00
2017-12-30T02:46:50.936Z,0.00
2017-12-30T02:47:50.934Z,0.00
2017-12-30T02:48:50.733Z,0.00
2017-12-30T02:49:50.733Z,0.00
2017-12-30T02:50:50.934Z,0.00
2017-12-30T02:51:50.943Z,0.00
2017-12-30T02:52:50.938Z,0.00
2017-12-30T02:53:50.945Z,0.00
2017-12-30T02:54:50.943Z,0.00
2017-12-30T02:55:50.945Z,0.00
2017-12-30T02:56:50.943Z,0.00
2017-12-30T02:57:50.940Z,0.00
2017-12-30T02:58:50.945Z,0.00
2017-12-30T02:59:50.948Z,0.00
2017-12-30T03:00:50.746Z,0.00
2017-12-30T03:01:50.749Z,0.00
2017-12-30T03:02:50.947Z,0.00
2017-12-30T03:03:50.954Z,0.00
2017-12-30T03:04:50.952Z,0.00
2017-12-30T03:05:50.950Z,0.00
2017-12-30T03:06:50.759Z,0.00
2017-12-30T03:07:50.960Z,0.00
2017-12-30T03:08:50.955Z,0.00
2017-12-30T03:09:50.960Z,0.00
2017-12-30T03:10:50.964Z,0.00
2017-12-30T03:11:50.970Z,0.00
2017-12-30T03:12:50.963Z,0.00
2017-12-30T03:13:50.972Z,0.00
2017-12-30T03:14:50.965Z,0.00
2017-12-30T03:15:50.963Z,0.00
2017-12-30T03:16:50.966Z,0.00
2017-12-30T03:17:50.996Z,0.00
2017-12-30T03:18:50.964Z,0.00
2017-12-30T03:19:50.968Z,0.00
2017-12-30T03:20:50.967Z,0.00
2017-12-30T03:21:50.969Z,0.00
2017-12-30T03:22:50.974Z,0.00
2017-12-30T03:23:50.983Z,0.00
2017-12-30T03:24:50.975Z,0.00
2017-12-30T03:25:50.773Z,0.00
2017-12-30T03:26:50.981Z,0.00
2017-12-30T03:27:50.983Z,0.00
2017-12-30T03:28:50.780Z,0.00
2017-12-30T03:29:50.977Z,0.00
2017-12-30T03:30:50.786Z,0.00
2017-12-30T03:31:50.978Z,0.00
2017-12-30T03:32:50.981Z,0.00
2017-12-30T03:33:50.991Z,0.00
2017-12-30T03:34:50.988Z,0.00
2017-12-30T03:35:50.995Z,0.00
2017-12-30T03:36:50.990Z,0.00
2017-12-30T03:37:50.993Z,0.00
2017-12-30T03:38:50.996Z,0.00
2017-12-30T03:39:50.993Z,0.00
2017-12-30T03:40:50.995Z,0.00
2017-12-30T03:41:50.792Z,0.00
2017-12-30T03:42:50.999Z,0.00
2017-12-30T03:43:50.800Z,0.00
2017-12-30T03:44:50.999Z,0.00
2017-12-30T03:45:51.001Z,0.00
2017-12-30T03:46:51.004Z,0.00
2017-12-30T03:47:51.006Z,0.00
2017-12-30T03:48:51.007Z,0.00
2017-12-30T03:49:50.999Z,0.00
2017-12-30T03:50:51.003Z,0.00
2017-12-30T03:51:51.011Z,0.00
2017-12-30T03:52:51.007Z,0.00
2017-12-30T03:53:51.016Z,0.00
2017-12-30T03:54:51.015Z,0.00
2017-12-30T03:55:51.011Z,0.00
2017-12-30T03:56:51.004Z,0.00
2017-12-30T03:57:51.069Z,0.00
2017-12-30T03:58:51.011Z,0.00
2017-12-30T03:59:51.013Z,0.00
2017-12-30T04:00:51.018Z,0.00
2017-12-30T04:01:51.020Z,0.00
2017-12-30T04:02:51.020Z,0.00
2017-12-30T04:03:51.021Z,0.00
2017-12-30T04:04:51.017Z,0.00
2017-12-30T04:05:51.056Z,0.00
2017-12-30T04:06:51.027Z,0.00
2017-12-30T04:07:51.026Z,0.00
2017-12-30T04:08:51.023Z,0.00
2017-12-30T04:09:51.019Z,0.00
2017-12-30T04:10:50.824Z,0.00
2017-12-30T04:11:50.831Z,0.00
2017-12-30T04:12:51.029Z,0.00
2017-12-30T04:13:51.030Z,0.00
2017-12-30T04:14:51.025Z,0.00
2017-12-30T04:15:51.035Z,0.00
2017-12-30T04:16:50.829Z,0.00
2017-12-30T04:17:50.833Z,0.00
2017-12-30T04:18:51.030Z,0.00
2017-12-30T04:19:51.030Z,0.00
2017-12-30T04:20:51.037Z,0.00
2017-12-30T04:21:51.033Z,0.00
2017-12-30T04:22:51.040Z,0.00
2017-12-30T04:23:51.043Z,0.00
2017-12-30T04:24:50.847Z,0.00
2017-12-30T04:25:50.841Z,0.00
2017-12-30T04:26:51.038Z,0.00
2017-12-30T04:27:51.051Z,0.00
2017-12-30T04:28:51.045Z,0.00
2017-12-30T04:29:51.045Z,0.00
2017-12-30T04:30:51.046Z,0.00
2017-12-30T04:31:51.050Z,0.00
2017-12-30T04:32:51.043Z,0.00
2017-12-30T04:33:51.044Z,0.00
2017-12-30T04:34:51.050Z,0.00
2017-12-30T04:35:51.047Z,0.00
2017-12-30T04:36:51.061Z,0.00
2017-12-30T04:37:51.052Z,0.00
2017-12-30T04:38:50.849Z,0.00
2017-12-30T04:39:51.050Z,0.00
2017-12-30T04:40:51.059Z,0.00
2017-12-30T04:41:50.866Z,0.00
2017-12-30T04:42:50.863Z,0.00
2017-12-30T04:43:51.058Z,0.00
2017-12-30T04:44:50.866Z,0.00
2017-12-30T04:45:51.057Z,0.00
2017-12-30T04:46:51.063Z,0.00
2017-12-30T04:47:51.065Z,0.00
2017-12-30T04:48:51.068Z,0.00
2017-12-30T04:49:51.069Z,0.00
2017-12-30T04:50:51.068Z,0.00
2017-12-30T04:51:51.072Z,0.00
2017-12-30T04:52:51.063Z,0.00
2017-12-30T04:53:51.076Z,0.00
2017-12-30T04:54:51.078Z,0.00
2017-12-30T04:55:51.070Z,0.00
2017-12-30T04:56:51.067Z,0.00
2017-12-30T04:57:51.073Z,0.00
2017-12-30T04:58:51.074Z,0.00
2017-12-30T04:59:51.079Z,0.00
2017-12-30T05:00:51.073Z,0.00
2017-12-30T05:01:51.080Z,0.00
2017-12-30T05:02:50.878Z,0.00
2017-12-30T05:03:51.075Z,0.00
2017-12-30T05:04:51.081Z,0.00
2017-12-30T05:05:51.078Z,0.00
2017-12-30T05:06:50.887Z,0.00
2017-12-30T05:07:51.084Z,0.00
2017-12-30T05:08:51.093Z,0.00
2017-12-30T05:09:51.087Z,0.00
2017-12-30T05:10:51.083Z,0.00
2017-12-30T05:11:51.086Z,0.00
2017-12-30T05:12:51.094Z,0.00
2017-12-30T05:13:51.089Z,0.00
2017-12-30T05:14:51.089Z,0.00
2017-12-30T05:15:51.087Z,0.00
2017-12-30T05:16:50.893Z,0.00
2017-12-30T05:17:51.096Z,0.00
2017-12-30T05:18:51.097Z,0.00
2017-12-30T05:19:51.097Z,0.00
2017-12-30T05:20:51.102Z,0.00
2017-12-30T05:21:51.095Z,0.00
2017-12-30T05:22:51.098Z,0.00
2017-12-30T05:23:51.116Z,0.00
2017-12-30T05:24:51.109Z,0.00
2017-12-30T05:25:51.100Z,0.00
2017-12-30T05:26:51.112Z,0.00
2017-12-30T05:27:51.102Z,0.00
2017-12-30T05:28:51.102Z,0.00
2017-12-30T05:29:50.905Z,0.00
2017-12-30T05:30:51.107Z,0.00
2017-12-30T05:31:51.103Z,0.00
2017-12-30T05:32:50.912Z,0.00
2017-12-30T05:33:51.105Z,0.00
2017-12-30T05:34:50.909Z,0.00
2017-12-30T05:35:51.116Z,0.00
2017-12-30T05:36:51.109Z,0.00
2017-12-30T05:37:51.113Z,0.00
2017-12-30T05:38:51.114Z,0.00
2017-12-30T05:39:50.920Z,0.00
2017-12-30T05:40:51.116Z,0.00
2017-12-30T05:41:51.115Z,0.00
2017-12-30T05:42:51.120Z,0.00
2017-12-30T05:43:51.124Z,0.00
2017-12-30T05:44:51.115Z,0.00
2017-12-30T05:45:50.917Z,0.00
2017-12-30T05:46:50.925Z,0.00
2017-12-30T05:47:51.128Z,0.00
2017-12-30T05:48:51.128Z,0.00
2017-12-30T05:49:51.122Z,0.00
2017-12-30T05:50:51.126Z,0.00
2017-12-30T05:51:51.122Z,0.00
2017-12-30T05:52:51.130Z,0.00
2017-12-30T05:53:51.139Z,0.00
2017-12-30T05:54:51.134Z,0.00
2017-12-30T05:55:50.946Z,0.00
2017-12-30T05:56:51.142Z,0.00
2017-12-30T05:57:51.135Z,0.00
2017-12-30T05:58:51.129Z,0.00
2017-12-30T05:59:51.134Z,0.00
2017-12-30T06:00:51.144Z,0.00
2017-12-30T06:01:50.937Z,0.00
2017-12-30T06:02:51.140Z,0.00
2017-12-30T06:03:51.136Z,0.00
2017-12-30T06:04:50.945Z,0.00
2017-12-30T06:05:51.149Z,0.00
2017-12-30T06:06:50.939Z,0.00
2017-12-30T06:07:51.141Z,0.00
2017-12-30T06:08:51.151Z,0.00
2017-12-30T06:09:51.149Z,0.00
2017-12-30T06:10:50.948Z,0.00
2017-12-30T06:11:51.144Z,0.00
2017-12-30T06:12:50.943Z,0.00
2017-12-30T06:13:50.951Z,0.00
2017-12-30T06:14:51.155Z,0.00
2017-12-30T06:15:51.147Z,0.00
2017-12-30T06:16:51.155Z,0.00
2017-12-30T06:17:51.149Z,0.00
2017-12-30T06:18:51.155Z,0.00
2017-12-30T06:19:50.959Z,0.00
2017-12-30T06:20:51.159Z,0.00
2017-12-30T06:21:51.159Z,0.00
2017-12-30T06:22:51.160Z,0.00
2017-12-30T06:23:51.158Z,0.00
2017-12-30T06:24:51.153Z,0.00
2017-12-30T06:25:51.159Z,0.00
2017-12-30T06:26:50.966Z,0.00
2017-12-30T06:27:51.166Z,0.00
2017-12-30T06:28:51.167Z,0.00
2017-12-30T06:29:50.959Z,0.00
2017-12-30T06:30:51.169Z,0.00
2017-12-30T06:31:51.165Z,0.00
2017-12-30T06:32:50.973Z,0.00
2017-12-30T06:33:50.969Z,0.00
2017-12-30T06:34:51.168Z,0.00
2017-12-30T06:35:50.979Z,0.00
2017-12-30T06:36:51.167Z,0.00
2017-12-30T06:37:51.177Z,0.00
2017-12-30T06:38:51.172Z,0.00
2017-12-30T06:39:51.182Z,0.00
2017-12-30T06:40:51.176Z,0.00
2017-12-30T06:41:51.174Z,0.00
2017-12-30T06:42:51.175Z,0.00
2017-12-30T06:43:51.172Z,0.00
2017-12-30T06:44:50.974Z,0.00
2017-12-30T06:45:51.180Z,0.00
2017-12-30T06:46:51.185Z,0.00
2017-12-30T06:47:51.184Z,0.00
2017-12-30T06:48:50.977Z,0.00
2017-12-30T06:49:50.989Z,0.00
2017-12-30T06:50:51.185Z,0.00
2017-12-30T06:51:51.186Z,0.00
2017-12-30T06:52:51.187Z,0.00
2017-12-30T06:53:51.183Z,0.00
2017-12-30T06:54:50.988Z,0.00
2017-12-30T06:55:50.989Z,0.00
2017-12-30T06:56:50.990Z,0.00
2017-12-30T06:57:50.987Z,0.00
2017-12-30T06:58:50.986Z,0.00
2017-12-30T06:59:51.188Z,0.00
2017-12-30T07:00:50.992Z,0.00
2017-12-30T07:01:51.197Z,0.00
2017-12-30T07:02:51.000Z,0.00
2017-12-30T07:03:51.219Z,0.00
2017-12-30T07:04:51.195Z,0.00
2017-12-30T07:05:50.995Z,0.00
2017-12-30T07:06:51.201Z,0.00
2017-12-30T07:07:51.004Z,0.00
2017-12-30T07:08:51.001Z,0.00
2017-12-30T07:09:51.208Z,0.00
2017-12-30T07:10:51.013Z,0.00
2017-12-30T07:11:51.208Z,0.00
2017-12-30T07:12:51.001Z,0.00
2017-12-30T07:13:51.200Z,4.00
2017-12-30T07:14:51.205Z,4.00
2017-12-30T07:15:51.208Z,4.00
2017-12-30T07:16:51.006Z,4.00
2017-12-30T07:17:51.215Z,4.00
2017-12-30T07:18:51.010Z,4.00
2017-12-30T07:19:51.013Z,0.00
2017-12-30T07:20:51.008Z,4.00
2017-12-30T07:21:51.022Z,4.00
2017-12-30T07:22:51.215Z,4.00
2017-12-30T07:23:51.012Z,4.00
2017-12-30T07:24:51.018Z,8.00
2017-12-30T07:25:51.215Z,8.00
2017-12-30T07:26:51.219Z,8.00
2017-12-30T07:27:51.223Z,4.00
2017-12-30T07:28:51.224Z,4.00
2017-12-30T07:29:51.025Z,4.00
2017-12-30T07:30:51.022Z,4.00
2017-12-30T07:31:51.031Z,4.00
2017-12-30T07:32:51.026Z,8.00
2017-12-30T07:33:51.258Z,8.00
2017-12-30T07:34:51.023Z,8.00
2017-12-30T07:35:51.238Z,8.00
2017-12-30T07:36:51.229Z,8.00
2017-12-30T07:37:51.029Z,8.00
2017-12-30T07:38:51.033Z,8.00
2017-12-30T07:39:51.031Z,12.00
2017-12-30T07:40:51.230Z,12.00
2017-12-30T07:41:51.036Z,12.00
2017-12-30T07:42:51.037Z,12.00
2017-12-30T07:43:51.232Z,16.00
2017-12-30T07:44:51.230Z,16.00
2017-12-30T07:45:51.034Z,12.00
2017-12-30T07:46:51.032Z,16.00
2017-12-30T07:47:51.038Z,16.00
2017-12-30T07:48:51.231Z,16.00
2017-12-30T07:49:51.239Z,16.00
2017-12-30T07:50:51.245Z,20.00
2017-12-30T07:51:51.042Z,16.00
2017-12-30T07:52:51.044Z,16.00
2017-12-30T07:53:51.037Z,16.00
2017-12-30T07:54:51.243Z,16.00
2017-12-30T07:55:51.046Z,16.00
2017-12-30T07:56:51.251Z,20.00
2017-12-30T07:57:51.249Z,20.00
2017-12-30T07:58:51.042Z,20.00
2017-12-30T07:59:51.250Z,20.00
2017-12-30T08:00:51.246Z,20.00
2017-12-30T08:01:51.250Z,24.00
2017-12-30T08:02:51.251Z,24.00
2017-12-30T08:03:51.091Z,24.00
2017-12-30T08:04:51.046Z,24.00
2017-12-30T08:05:51.057Z,24.00
2017-12-30T08:06:51.251Z,24.00
2017-12-30T08:07:51.259Z,24.00
2017-12-30T08:08:51.253Z,24.00
2017-12-30T08:09:51.250Z,28.00
2017-12-30T08:10:51.051Z,28.00
2017-12-30T08:11:51.056Z,24.00
2017-12-30T08:12:51.060Z,28.00
2017-12-30T08:13:51.256Z,28.00
2017-12-30T08:14:51.055Z,28.00
2017-12-30T08:15:51.057Z,28.00
2017-12-30T08:16:51.067Z,28.00
2017-12-30T08:17:51.059Z,32.00
2017-12-30T08:18:51.275Z,32.00
2017-12-30T08:19:51.068Z,28.00
2017-12-30T08:20:51.274Z,28.00
2017-12-30T08:21:51.265Z,28.00
2017-12-30T08:22:51.070Z,28.00
2017-12-30T08:23:51.066Z,28.00
2017-12-30T08:24:51.271Z,32.00
2017-12-30T08:25:51.273Z,32.00
2017-12-30T08:26:51.269Z,36.00
2017-12-30T08:27:51.067Z,40.00
2017-12-30T08:28:51.075Z,36.00
2017-12-30T08:29:51.077Z,36.00
2017-12-30T08:30:51.268Z,36.00
2017-12-30T08:31:51.077Z,36.00
2017-12-30T08:32:51.271Z,32.00
2017-12-30T08:33:51.273Z,32.00
2017-12-30T08:34:51.078Z,36.00
2017-12-30T08:35:51.074Z,48.00
2017-12-30T08:36:51.273Z,36.00
2017-12-30T08:37:51.083Z,44.00
2017-12-30T08:38:51.275Z,36.00
2017-12-30T08:39:51.088Z,36.00
2017-12-30T08:40:51.090Z,40.00
2017-12-30T08:41:51.082Z,36.00
2017-12-30T08:42:51.121Z,36.00
2017-12-30T08:43:51.086Z,40.00
2017-12-30T08:44:51.089Z,36.00
2017-12-30T08:45:51.084Z,36.00
2017-12-30T08:46:51.086Z,36.00
2017-12-30T08:47:51.086Z,40.00
2017-12-30T08:48:51.090Z,36.00
2017-12-30T08:49:51.291Z,40.00
2017-12-30T08:50:51.292Z,36.00
2017-12-30T08:51:51.087Z,32.00
2017-12-30T08:52:51.095Z,36.00
2017-12-30T08:53:51.093Z,40.00
2017-12-30T08:54:51.099Z,36.00
2017-12-30T08:55:51.096Z,36.00
2017-12-30T08:56:51.091Z,40.00
2017-12-30T08:57:51.097Z,44.00
2017-12-30T08:58:51.300Z,52.00
2017-12-30T08:59:51.093Z,60.00
2017-12-30T09:00:51.300Z,52.00
2017-12-30T09:01:51.100Z,48.00
2017-12-30T09:02:51.304Z,52.00
2017-12-30T09:03:51.099Z,48.00
2017-12-30T09:04:51.299Z,48.00
2017-12-30T09:05:51.327Z,48.00
2017-12-30T09:06:51.105Z,48.00
2017-12-30T09:07:51.304Z,48.00
2017-12-30T09:08:51.107Z,44.00
2017-12-30T09:09:51.310Z,44.00
2017-12-30T09:10:51.314Z,48.00
2017-12-30T09:11:51.115Z,44.00
2017-12-30T09:12:51.104Z,44.00
2017-12-30T09:13:51.108Z,44.00
2017-12-30T09:14:51.308Z,44.00
2017-12-30T09:15:51.112Z,44.00
2017-12-30T09:16:51.112Z,44.00
2017-12-30T09:17:51.117Z,40.00
2017-12-30T09:18:51.116Z,44.00
2017-12-30T09:19:51.122Z,40.00
2017-12-30T09:20:51.313Z,40.00
2017-12-30T09:21:51.117Z,40.00
2017-12-30T09:22:51.115Z,36.00
2017-12-30T09:23:51.315Z,40.00
2017-12-30T09:24:51.313Z,44.00
2017-12-30T09:25:51.123Z,36.00
2017-12-30T09:26:51.147Z,36.00
2017-12-30T09:27:51.321Z,36.00
2017-12-30T09:28:51.124Z,36.00
2017-12-30T09:29:51.346Z,40.00
2017-12-30T09:30:51.128Z,32.00
2017-12-30T09:31:51.130Z,36.00
2017-12-30T09:32:51.331Z,36.00
2017-12-30T09:33:51.324Z,56.00
2017-12-30T09:34:51.329Z,76.00
2017-12-30T09:35:51.127Z,116.00
2017-12-30T09:36:51.332Z,112.00
2017-12-30T09:37:51.129Z,68.00
2017-12-30T09:38:51.332Z,72.00
2017-12-30T09:39:51.333Z,72.00
2017-12-30T09:40:51.331Z,68.00
2017-12-30T09:41:51.136Z,68.00
2017-12-30T09:42:51.128Z,56.00
2017-12-30T09:43:51.133Z,52.00
2017-12-30T09:44:51.143Z,52.00
2017-12-30T09:45:51.136Z,52.00
2017-12-30T09:46:51.136Z,48.00
2017-12-30T09:47:51.145Z,44.00
2017-12-30T09:48:51.135Z,48.00
2017-12-30T09:49:51.136Z,48.00
2017-12-30T09:50:51.136Z,48.00
2017-12-30T09:51:51.144Z,36.00
2017-12-30T09:52:51.137Z,32.00
2017-12-30T09:53:51.141Z,32.00
2017-12-30T09:54:51.147Z,28.00
2017-12-30T09:55:51.150Z,28.00
2017-12-30T09:56:51.144Z,36.00
2017-12-30T09:57:51.148Z,48.00
2017-12-30T09:58:51.155Z,56.00
2017-12-30T09:59:51.152Z,60.00
2017-12-30T10:00:51.150Z,56.00
2017-12-30T10:01:51.351Z,60.00
2017-12-30T10:02:51.157Z,60.00
2017-12-30T10:03:51.150Z,60.00
2017-12-30T10:04:51.355Z,60.00
2017-12-30T10:05:51.149Z,60.00
2017-12-30T10:06:51.150Z,56.00
2017-12-30T10:07:51.164Z,56.00
2017-12-30T10:08:51.151Z,52.00
2017-12-30T10:09:51.159Z,52.00
2017-12-30T10:10:51.360Z,48.00
2017-12-30T10:11:51.163Z,44.00
2017-12-30T10:12:51.361Z,44.00
2017-12-30T10:13:51.163Z,48.00
2017-12-30T10:14:51.161Z,48.00
2017-12-30T10:15:51.158Z,52.00
2017-12-30T10:16:51.164Z,56.00
2017-12-30T10:17:51.365Z,72.00
2017-12-30T10:18:51.169Z,72.00
2017-12-30T10:19:51.369Z,72.00
2017-12-30T10:20:51.366Z,56.00
2017-12-30T10:21:51.174Z,60.00
2017-12-30T10:22:51.175Z,72.00
2017-12-30T10:23:51.366Z,72.00
2017-12-30T10:24:51.176Z,64.00
2017-12-30T10:25:51.166Z,64.00
2017-12-30T10:26:51.172Z,72.00
2017-12-30T10:27:51.372Z,88.00
2017-12-30T10:28:51.374Z,88.00
2017-12-30T10:29:51.180Z,108.00
2017-12-30T10:30:51.179Z,80.00
2017-12-30T10:31:51.173Z,76.00
2017-12-30T10:32:51.378Z,72.00
2017-12-30T10:33:51.372Z,72.00
2017-12-30T10:34:51.175Z,80.00
2017-12-30T10:35:51.175Z,112.00
2017-12-30T10:36:51.175Z,88.00
2017-12-30T10:37:51.384Z,88.00
2017-12-30T10:38:51.190Z,88.00
2017-12-30T10:39:51.182Z,88.00
2017-12-30T10:40:51.387Z,80.00
2017-12-30T10:41:51.428Z,64.00
2017-12-30T10:42:51.182Z,52.00
2017-12-30T10:43:51.187Z,56.00
2017-12-30T10:44:51.185Z,56.00
2017-12-30T10:45:51.192Z,52.00
2017-12-30T10:46:51.388Z,52.00
2017-12-30T10:47:51.399Z,52.00
2017-12-30T10:48:51.189Z,48.00
2017-12-30T10:49:51.197Z,48.00
2017-12-30T10:50:51.203Z,44.00
2017-12-30T10:51:51.193Z,52.00
2017-12-30T10:52:51.198Z,56.00
2017-12-30T10:53:51.205Z,52.00
2017-12-30T10:54:51.401Z,52.00
2017-12-30T10:55:51.400Z,48.00
2017-12-30T10:56:51.397Z,48.00
2017-12-30T10:57:51.399Z,48.00
2017-12-30T10:58:51.397Z,44.00
2017-12-30T10:59:51.205Z,48.00
2017-12-30T11:00:51.219Z,44.00
2017-12-30T11:01:51.401Z,44.00
2017-12-30T11:02:51.218Z,40.00
2017-12-30T11:03:51.337Z,40.00
2017-12-30T11:04:51.410Z,44.00
2017-12-30T11:05:51.205Z,40.00
2017-12-30T11:06:51.231Z,40.00
2017-12-30T11:07:51.213Z,44.00
2017-12-30T11:08:51.205Z,52.00
2017-12-30T11:09:51.409Z,56.00
2017-12-30T11:10:51.219Z,48.00
2017-12-30T11:11:51.419Z,52.00
2017-12-30T11:12:51.416Z,48.00
2017-12-30T11:13:51.419Z,48.00
2017-12-30T11:14:51.210Z,48.00
2017-12-30T11:15:51.416Z,48.00
2017-12-30T11:16:51.218Z,52.00
2017-12-30T11:17:51.424Z,48.00
2017-12-30T11:18:51.219Z,52.00
2017-12-30T11:19:51.426Z,52.00
2017-12-30T11:20:51.225Z,48.00
2017-12-30T11:21:51.416Z,52.00
2017-12-30T11:22:51.435Z,56.00
2017-12-30T11:23:51.431Z,60.00
2017-12-30T11:24:51.227Z,64.00
2017-12-30T11:25:51.237Z,72.00
2017-12-30T11:26:51.222Z,76.00
2017-12-30T11:27:51.225Z,76.00
2017-12-30T11:28:51.227Z,76.00
2017-12-30T11:29:51.315Z,72.00
2017-12-30T11:30:51.225Z,64.00
2017-12-30T11:31:51.234Z,64.00
2017-12-30T11:32:51.230Z,56.00
2017-12-30T11:33:51.233Z,56.00
2017-12-30T11:34:51.241Z,56.00
2017-12-30T11:35:51.235Z,56.00
2017-12-30T11:36:51.439Z,68.00
2017-12-30T11:37:51.240Z,116.00
2017-12-30T11:38:51.232Z,156.00
2017-12-30T11:39:51.232Z,148.00
2017-12-30T11:40:51.240Z,140.00
2017-12-30T11:41:51.245Z,140.00
2017-12-30T11:42:51.241Z,132.00
2017-12-30T11:43:51.444Z,88.00
2017-12-30T11:44:51.237Z,80.00
2017-12-30T11:45:51.239Z,100.00
2017-12-30T11:46:51.466Z,120.00
2017-12-30T11:47:51.241Z,100.00
2017-12-30T11:48:51.446Z,132.00
2017-12-30T11:49:51.253Z,84.00
2017-12-30T11:50:51.456Z,96.00
2017-12-30T11:51:51.448Z,84.00
2017-12-30T11:52:51.246Z,68.00
2017-12-30T11:53:51.252Z,64.00
2017-12-30T11:54:51.249Z,60.00
2017-12-30T11:55:51.448Z,56.00
2017-12-30T11:56:51.453Z,52.00
2017-12-30T11:57:51.460Z,48.00
2017-12-30T11:58:51.261Z,48.00
2017-12-30T11:59:51.257Z,52.00
2017-12-30T12:00:51.453Z,52.00
2017-12-30T12:01:51.262Z,56.00
2017-12-30T12:02:51.264Z,96.00
2017-12-30T12:03:51.266Z,156.00
2017-12-30T12:04:51.262Z,80.00
2017-12-30T12:05:51.266Z,56.00
2017-12-30T12:06:51.278Z,52.00
2017-12-30T12:07:51.265Z,48.00
2017-12-30T12:08:51.261Z,40.00
2017-12-30T12:09:51.272Z,36.00
2017-12-30T12:10:51.272Z,32.00
2017-12-30T12:11:51.475Z,28.00
2017-12-30T12:12:51.278Z,28.00
2017-12-30T12:13:51.268Z,36.00
2017-12-30T12:14:51.483Z,36.00
2017-12-30T12:15:51.473Z,36.00
2017-12-30T12:16:51.274Z,36.00
2017-12-30T12:17:51.270Z,36.00
2017-12-30T12:18:51.285Z,32.00
2017-12-30T12:19:51.278Z,36.00
2017-12-30T12:20:51.479Z,40.00
2017-12-30T12:21:51.283Z,48.00
2017-12-30T12:22:51.275Z,52.00
2017-12-30T12:23:51.476Z,48.00
2017-12-30T12:24:51.480Z,48.00
2017-12-30T12:25:51.591Z,48.00
2017-12-30T12:26:51.297Z,40.00
2017-12-30T12:27:51.484Z,40.00
2017-12-30T12:28:51.282Z,36.00
2017-12-30T12:29:51.292Z,28.00
2017-12-30T12:30:51.286Z,28.00
2017-12-30T12:31:51.285Z,28.00
2017-12-30T12:32:51.490Z,28.00
2017-12-30T12:33:51.287Z,32.00
2017-12-30T12:34:51.297Z,32.00
2017-12-30T12:35:51.518Z,36.00
2017-12-30T12:36:51.294Z,40.00
2017-12-30T12:37:51.298Z,40.00
2017-12-30T12:38:51.288Z,32.00
2017-12-30T12:39:51.490Z,32.00
2017-12-30T12:40:51.507Z,32.00
2017-12-30T12:41:51.312Z,28.00
2017-12-30T12:42:51.296Z,28.00
2017-12-30T12:43:51.505Z,28.00
2017-12-30T12:44:51.294Z,28.00
2017-12-30T12:45:51.294Z,24.00
2017-12-30T12:46:51.302Z,24.00
2017-12-30T12:47:51.296Z,24.00
2017-12-30T12:48:51.318Z,24.00
2017-12-30T12:49:51.298Z,20.00
2017-12-30T12:50:51.303Z,20.00
2017-12-30T12:51:51.498Z,20.00
2017-12-30T12:52:51.499Z,20.00
2017-12-30T12:53:51.494Z,20.00
2017-12-30T12:54:51.303Z,20.00
2017-12-30T12:55:51.305Z,20.00
2017-12-30T12:56:51.296Z,20.00
2017-12-30T12:57:51.299Z,16.00
2017-12-30T12:58:51.306Z,16.00
2017-12-30T12:59:51.500Z,20.00
2017-12-30T13:00:51.308Z,20.00
2017-12-30T13:01:51.307Z,16.00
2017-12-30T13:02:51.301Z,16.00
2017-12-30T13:03:51.306Z,16.00
2017-12-30T13:04:51.501Z,12.00
2017-12-30T13:05:51.306Z,224.00
2017-12-30T13:06:51.305Z,216.00